Time;durP1;ratioP1;P1;durP2;ratioP2;P2;SDS_P1;SDS_P2;PMS_P1;PMS_P2;Temp;Humidity;BMP_temperature;BMP_pressure;BME280_temperature;BME280_humidity;BME280_pressure;Samples;Min_cycle;Max_cycle;Signal;HPM_P1;HPM_P2
2023/05/13 00:00:48;;;;;;;37.42;31.42;;;;;;;;;;5053538;28;20052;-60
2023/05/13 00:03:15;;;;;;;30.92;25.90;;;;;;;;;;5065736;28;20056;-61
2023/05/13 00:05:45;;;;;;;29.20;26.10;;;;;;;;;;5073000;28;20425;-61
2023/05/13 00:08:12;;;;;;;29.98;26.25;;;;;;;;;;5072670;28;20056;-61
2023/05/13 00:10:39;;;;;;;28.10;25.05;;;;;;;;;;5062695;28;20052;-61
2023/05/13 00:13:07;;;;;;;31.17;26.70;;;;;;;;;;5062880;28;20532;-61
2023/05/13 00:15:35;;;;;;;35.95;28.85;;;;;;;;;;5070826;28;20059;-61
2023/05/13 00:18:02;;;;;;;35.95;29.45;;;;;;;;;;5059397;28;20056;-61
2023/05/13 00:20:29;;;;;;;35.25;30.02;;;;;;;;;;5069334;28;20421;-61
2023/05/13 00:22:56;;;;;;;30.45;26.55;;;;;;;;;;5072906;28;20064;-62
2023/05/13 00:25:23;;;;;;;29.25;23.35;;;;;;;;;;5072632;28;20060;-61
2023/05/13 00:27:50;;;;;;;30.63;26.17;;;;;;;;;;5058983;28;20048;-61
2023/05/13 00:30:16;;;;;;;34.95;30.80;;;;;;;;;;5066735;28;20056;-61
2023/05/13 00:32:45;;;;;;;33.47;28.80;;;;;;;;;;5053753;28;20056;-61
2023/05/13 00:35:12;;;;;;;26.77;23.40;;;;;;;;;;5065475;28;20053;-61
2023/05/13 00:37:39;;;;;;;34.90;28.40;;;;;;;;;;5072678;28;20127;-61
2023/05/13 00:40:11;;;;;;;29.45;26.35;;;;;;;;;;5062415;28;20064;-61
2023/05/13 00:42:38;;;;;;;27.55;23.38;;;;;;;;;;5058992;28;20055;-61
2023/05/13 00:45:06;;;;;;;25.05;22.35;;;;;;;;;;5058577;28;20493;-61
2023/05/13 00:47:33;;;;;;;24.13;21.70;;;;;;;;;;5058431;28;20056;-61
2023/05/13 00:50:01;;;;;;;36.47;27.88;;;;;;;;;;5056851;28;20056;-61
2023/05/13 00:52:28;;;;;;;29.15;25.30;;;;;;;;;;5055591;28;20064;-61
2023/05/13 00:54:58;;;;;;;27.45;22.48;;;;;;;;;;5052418;28;20413;-61
2023/05/13 00:57:25;;;;;;;29.33;26.00;;;;;;;;;;5055791;28;20049;-62
2023/05/13 00:59:52;;;;;;;26.05;23.17;;;;;;;;;;5061679;28;20051;-62
2023/05/13 01:02:21;;;;;;;24.38;21.45;;;;;;;;;;5058119;28;20055;-61
2023/05/13 01:04:52;;;;;;;31.67;27.48;;;;;;;;;;5061584;28;20052;-61
2023/05/13 01:07:34;;;;;;;32.17;25.38;;;;;;;;;;5050542;28;20045;-62
2023/05/13 01:10:05;;;;;;;33.50;26.80;;;;;;;;;;5055458;28;20056;-61
2023/05/13 01:12:34;;;;;;;33.38;24.88;;;;;;;;;;5058734;28;20057;-61
2023/05/13 01:15:04;;;;;;;51.40;29.13;;;;;;;;;;5056522;28;20059;-61
2023/05/13 01:17:35;;;;;;;48.55;28.20;;;;;;;;;;5050299;28;20060;-61
2023/05/13 01:20:03;;;;;;;49.00;27.80;;;;;;;;;;5060925;28;20053;-61
2023/05/13 01:22:34;;;;;;;43.30;29.85;;;;;;;;;;5065934;28;20044;-61
2023/05/13 01:25:01;;;;;;;46.13;31.92;;;;;;;;;;5065478;28;20045;-61
2023/05/13 01:27:27;;;;;;;43.90;32.05;;;;;;;;;;5075628;28;20374;-61
2023/05/13 01:29:57;;;;;;;42.90;31.52;;;;;;;;;;5057534;28;20532;-61
2023/05/13 01:32:25;;;;;;;40.67;30.05;;;;;;;;;;5061253;28;20053;-61
2023/05/13 01:34:52;;;;;;;98.60;45.45;;;;;;;;;;5067961;28;20056;-62
2023/05/13 01:37:19;;;;;;;53.03;33.28;;;;;;;;;;5062713;28;20049;-61
2023/05/13 01:39:48;;;;;;;86.72;39.45;;;;;;;;;;5055228;28;20485;-61
2023/05/13 01:42:15;;;;;;;96.53;45.93;;;;;;;;;;5074888;28;20397;-60
2023/05/13 01:44:42;;;;;;;108.07;48.53;;;;;;;;;;5074962;28;20490;-62
2023/05/13 01:47:09;;;;;;;113.28;40.92;;;;;;;;;;5060902;28;20066;-62
2023/05/13 01:49:36;;;;;;;68.07;38.53;;;;;;;;;;5068689;28;20501;-61
2023/05/13 01:52:03;;;;;;;66.07;32.47;;;;;;;;;;5073703;28;20060;-61
2023/05/13 01:54:30;;;;;;;55.65;32.67;;;;;;;;;;5066652;28;20053;-61
2023/05/13 01:56:58;;;;;;;39.90;27.42;;;;;;;;;;5058709;28;20060;-61
2023/05/13 01:59:25;;;;;;;32.00;25.35;;;;;;;;;;5067279;28;20060;-62
2023/05/13 02:01:52;;;;;;;28.55;23.02;;;;;;;;;;5060973;28;20056;-63
2023/05/13 02:04:18;;;;;;;29.80;23.08;;;;;;;;;;5060396;28;20049;-62
2023/05/13 02:06:45;;;;;;;150.80;40.28;;;;;;;;;;5071711;28;20486;-62
2023/05/13 02:09:12;;;;;;;113.30;39.15;;;;;;;;;;5058795;28;20115;-62
2023/05/13 02:11:39;;;;;;;137.88;38.60;;;;;;;;;;5064788;28;20057;-62
2023/05/13 02:14:07;;;;;;;170.95;44.33;;;;;;;;;;5058118;28;20048;-62
2023/05/13 02:16:34;;;;;;;107.18;38.90;;;;;;;;;;5057866;28;20071;-62
2023/05/13 02:19:01;;;;;;;76.38;38.75;;;;;;;;;;5060327;28;20386;-62
2023/05/13 02:21:28;;;;;;;79.13;38.35;;;;;;;;;;5069010;28;20045;-62
2023/05/13 02:23:55;;;;;;;151.43;46.35;;;;;;;;;;5056308;28;20490;-62
2023/05/13 02:26:22;;;;;;;79.95;36.05;;;;;;;;;;5066839;28;20052;-62
2023/05/13 02:28:48;;;;;;;65.47;30.60;;;;;;;;;;5061865;28;20052;-62
2023/05/13 02:31:17;;;;;;;74.32;34.60;;;;;;;;;;5068399;28;20060;-62
2023/05/13 02:33:43;;;;;;;105.72;33.53;;;;;;;;;;5063430;28;20055;-62
2023/05/13 02:36:10;;;;;;;107.20;42.40;;;;;;;;;;5059646;28;20059;-62
2023/05/13 02:38:37;;;;;;;58.83;34.33;;;;;;;;;;5055149;28;20053;-62
2023/05/13 02:41:05;;;;;;;93.57;33.35;;;;;;;;;;5070290;28;20052;-62
2023/05/13 02:43:32;;;;;;;88.63;33.80;;;;;;;;;;5053364;28;20060;-62
2023/05/13 02:46:04;;;;;;;63.42;30.88;;;;;;;;;;5051554;28;20049;-62
2023/05/13 02:48:32;;;;;;;50.20;27.95;;;;;;;;;;5050576;28;20049;-62
2023/05/13 02:50:59;;;;;;;35.35;25.00;;;;;;;;;;5063424;28;20064;-62
2023/05/13 02:53:26;;;;;;;48.92;25.63;;;;;;;;;;5054144;28;20485;-63
2023/05/13 02:55:54;;;;;;;33.17;22.48;;;;;;;;;;5057006;28;20049;-62
2023/05/13 02:58:21;;;;;;;45.10;22.92;;;;;;;;;;5054360;28;20052;-63
2023/05/13 03:00:47;;;;;;;53.17;28.13;;;;;;;;;;5060732;28;20052;-63
2023/05/13 03:03:18;;;;;;;73.05;31.35;;;;;;;;;;5064647;28;20067;-63
2023/05/13 03:05:46;;;;;;;112.75;29.88;;;;;;;;;;5052258;28;20056;-63
2023/05/13 03:08:13;;;;;;;68.53;32.00;;;;;;;;;;5064217;28;20056;-63
2023/05/13 03:10:39;;;;;;;82.82;33.22;;;;;;;;;;5066918;28;20060;-63
2023/05/13 03:13:06;;;;;;;64.00;27.75;;;;;;;;;;5056343;28;20044;-63
2023/05/13 03:15:33;;;;;;;61.22;31.27;;;;;;;;;;5070352;28;20056;-63
2023/05/13 03:18:00;;;;;;;67.28;26.80;;;;;;;;;;5063616;28;20045;-63
2023/05/13 03:20:27;;;;;;;79.65;36.25;;;;;;;;;;5068087;28;20060;-63
2023/05/13 03:22:55;;;;;;;50.22;25.30;;;;;;;;;;5070277;28;20053;-63
2023/05/13 03:25:22;;;;;;;62.20;29.98;;;;;;;;;;5056529;28;20056;-63
2023/05/13 03:27:49;;;;;;;38.33;27.52;;;;;;;;;;5062054;28;20052;-64
2023/05/13 03:30:15;;;;;;;32.78;26.52;;;;;;;;;;5068135;28;20048;-63
2023/05/13 03:32:42;;;;;;;38.45;21.77;;;;;;;;;;5065621;28;20053;-63
2023/05/13 03:35:09;;;;;;;98.40;30.77;;;;;;;;;;5068398;28;20421;-63
2023/05/13 03:37:36;;;;;;;33.17;22.13;;;;;;;;;;5073360;28;20063;-63
2023/05/13 03:40:04;;;;;;;35.03;22.27;;;;;;;;;;5073257;28;20413;-63
2023/05/13 03:42:31;;;;;;;52.88;20.73;;;;;;;;;;5071093;28;20059;-63
2023/05/13 03:44:58;;;;;;;35.30;21.98;;;;;;;;;;5062048;28;20056;-63
2023/05/13 03:47:25;;;;;;;24.83;20.73;;;;;;;;;;5073221;28;20059;-63
2023/05/13 03:49:52;;;;;;;34.78;26.23;;;;;;;;;;5054763;28;20060;-63
2023/05/13 03:52:19;;;;;;;34.35;25.00;;;;;;;;;;5070665;28;20520;-63
2023/05/13 03:54:45;;;;;;;55.80;27.52;;;;;;;;;;5069096;28;20049;-63
2023/05/13 03:57:14;;;;;;;54.58;25.70;;;;;;;;;;5061729;28;20375;-63
2023/05/13 03:59:40;;;;;;;29.45;25.83;;;;;;;;;;5070112;28;20055;-63
2023/05/13 04:02:07;;;;;;;35.20;25.70;;;;;;;;;;5055701;28;20048;-63
2023/05/13 04:04:34;;;;;;;41.55;26.45;;;;;;;;;;5058279;28;20048;-63
2023/05/13 04:07:01;;;;;;;101.15;28.67;;;;;;;;;;5061346;28;20059;-63
2023/05/13 04:09:28;;;;;;;101.22;26.13;;;;;;;;;;5060483;28;20056;-63
2023/05/13 04:11:55;;;;;;;35.38;24.48;;;;;;;;;;5051894;28;20053;-63
2023/05/13 04:14:23;;;;;;;51.55;25.70;;;;;;;;;;5058409;28;20110;-63
2023/05/13 04:16:49;;;;;;;31.85;25.45;;;;;;;;;;5061832;28;20059;-63
2023/05/13 04:19:16;;;;;;;38.22;24.48;;;;;;;;;;5065056;28;20056;-63
2023/05/13 04:21:43;;;;;;;53.58;25.05;;;;;;;;;;5053485;28;20419;-63
2023/05/13 04:24:10;;;;;;;34.15;23.80;;;;;;;;;;5052746;28;20057;-63
2023/05/13 04:26:38;;;;;;;73.60;22.58;;;;;;;;;;5070702;28;20052;-63
2023/05/13 04:29:04;;;;;;;29.65;23.23;;;;;;;;;;5069854;28;20051;-63
2023/05/13 04:31:33;;;;;;;26.05;20.58;;;;;;;;;;5063273;28;20052;-63
2023/05/13 04:34:00;;;;;;;32.72;19.88;;;;;;;;;;5053430;28;20060;-63
2023/05/13 04:36:26;;;;;;;41.90;23.73;;;;;;;;;;5064785;28;20552;-63
2023/05/13 04:38:54;;;;;;;37.20;22.55;;;;;;;;;;5072551;28;20048;-63
2023/05/13 04:41:21;;;;;;;43.67;23.35;;;;;;;;;;5072531;28;20049;-63
2023/05/13 04:43:47;;;;;;;36.97;22.30;;;;;;;;;;5071830;28;20063;-63
2023/05/13 04:46:14;;;;;;;59.53;24.50;;;;;;;;;;5072194;28;20056;-63
2023/05/13 04:48:46;;;;;;;44.00;21.45;;;;;;;;;;5068486;28;20120;-63
2023/05/13 04:51:13;;;;;;;60.75;21.92;;;;;;;;;;5052487;28;20079;-63
2023/05/13 04:53:40;;;;;;;51.88;22.88;;;;;;;;;;5052107;28;20060;-63
2023/05/13 04:56:07;;;;;;;77.88;23.90;;;;;;;;;;5056261;28;20478;-63
2023/05/13 04:58:34;;;;;;;40.42;21.92;;;;;;;;;;5056634;28;20049;-63
2023/05/13 05:01:01;;;;;;;82.90;26.65;;;;;;;;;;5055972;28;20052;-63
2023/05/13 05:03:28;;;;;;;49.28;22.10;;;;;;;;;;5070301;28;20053;-63
2023/05/13 05:05:56;;;;;;;97.72;28.33;;;;;;;;;;5068084;28;20056;-63
2023/05/13 05:08:23;;;;;;;31.45;17.67;;;;;;;;;;5056176;28;20486;-63
2023/05/13 05:10:52;;;;;;;44.15;18.70;;;;;;;;;;5058729;28;20513;-63
2023/05/13 05:13:19;;;;;;;45.25;17.92;;;;;;;;;;5069467;28;20436;-63
2023/05/13 05:15:46;;;;;;;19.55;15.52;;;;;;;;;;5069951;28;20040;-63
2023/05/13 05:18:13;;;;;;;67.25;17.75;;;;;;;;;;5069287;28;20060;-63
2023/05/13 05:20:41;;;;;;;36.80;15.60;;;;;;;;;;5057647;28;20494;-63
2023/05/13 05:23:10;;;;;;;16.80;14.70;;;;;;;;;;5066873;28;20052;-63
2023/05/13 05:25:37;;;;;;;21.80;14.70;;;;;;;;;;5055720;28;20063;-63
2023/05/13 05:28:04;;;;;;;39.08;17.23;;;;;;;;;;5058369;28;20481;-63
2023/05/13 05:30:38;;;;;;;148.20;27.15;;;;;;;;;;5057719;28;20056;-63
2023/05/13 05:33:04;;;;;;;122.38;25.40;;;;;;;;;;5070002;28;20486;-64
2023/05/13 05:35:32;;;;;;;82.55;22.70;;;;;;;;;;5062475;28;20053;-63
2023/05/13 05:37:59;;;;;;;42.03;17.65;;;;;;;;;;5075058;28;20078;-63
2023/05/13 05:40:27;;;;;;;73.68;17.15;;;;;;;;;;5075110;28;20414;-63
2023/05/13 05:42:53;;;;;;;34.50;15.50;;;;;;;;;;5075530;28;20067;-63
2023/05/13 05:45:20;;;;;;;57.45;16.83;;;;;;;;;;5075268;28;20060;-63
2023/05/13 05:47:47;;;;;;;36.75;16.77;;;;;;;;;;5075356;28;20060;-63
2023/05/13 05:50:14;;;;;;;18.27;16.65;;;;;;;;;;5068930;28;20048;-63
2023/05/13 05:52:41;;;;;;;15.82;13.27;;;;;;;;;;5075069;28;20048;-63
2023/05/13 05:55:08;;;;;;;16.60;14.95;;;;;;;;;;5074896;28;20048;-63
2023/05/13 05:57:36;;;;;;;19.17;15.07;;;;;;;;;;5075058;28;20052;-63
2023/05/13 06:00:03;;;;;;;16.73;15.13;;;;;;;;;;5075012;28;20056;-63
2023/05/13 06:02:30;;;;;;;16.77;14.20;;;;;;;;;;5074501;28;20061;-62
2023/05/13 06:04:57;;;;;;;25.48;18.42;;;;;;;;;;5069867;28;20402;-63
2023/05/13 06:07:25;;;;;;;23.52;16.85;;;;;;;;;;5071776;28;20052;-63
2023/05/13 06:09:51;;;;;;;26.63;18.27;;;;;;;;;;5059573;28;20045;-63
2023/05/13 06:12:18;;;;;;;18.30;15.88;;;;;;;;;;5072769;28;20079;-63
2023/05/13 06:14:46;;;;;;;17.08;15.45;;;;;;;;;;5058750;28;20075;-63
2023/05/13 06:17:13;;;;;;;17.55;16.05;;;;;;;;;;5057284;28;20448;-63
2023/05/13 06:19:41;;;;;;;22.30;19.30;;;;;;;;;;5062111;28;20056;-63
2023/05/13 06:22:08;;;;;;;16.55;14.95;;;;;;;;;;5061570;28;20525;-63
2023/05/13 06:24:35;;;;;;;14.73;13.43;;;;;;;;;;5061679;28;20056;-63
2023/05/13 06:27:01;;;;;;;15.70;14.30;;;;;;;;;;5064810;28;20497;-63
2023/05/13 06:29:29;;;;;;;16.77;15.20;;;;;;;;;;5064419;28;20059;-63
2023/05/13 06:31:57;;;;;;;15.75;14.40;;;;;;;;;;5074504;28;20491;-63
2023/05/13 06:34:24;;;;;;;15.73;14.32;;;;;;;;;;5074414;28;20063;-63
2023/05/13 06:36:51;;;;;;;15.88;14.52;;;;;;;;;;5055492;28;20057;-63
2023/05/13 06:39:18;;;;;;;17.83;16.13;;;;;;;;;;5053907;28;20071;-62
2023/05/13 06:41:45;;;;;;;14.57;13.27;;;;;;;;;;5054153;28;20060;-63
2023/05/13 06:44:11;;;;;;;16.50;14.95;;;;;;;;;;5056879;28;20059;-62
2023/05/13 06:46:38;;;;;;;14.73;13.38;;;;;;;;;;5069129;28;20052;-63
2023/05/13 06:49:06;;;;;;;18.67;16.75;;;;;;;;;;5061276;28;20057;-63
2023/05/13 06:51:33;;;;;;;16.83;15.30;;;;;;;;;;5056109;28;20052;-63
2023/05/13 06:54:00;;;;;;;16.70;15.20;;;;;;;;;;5060803;28;20052;-65
2023/05/13 06:56:28;;;;;;;16.77;15.30;;;;;;;;;;5057418;28;20052;-63
2023/05/13 06:58:55;;;;;;;16.40;14.90;;;;;;;;;;5059920;28;20045;-63
2023/05/13 07:01:22;;;;;;;19.33;17.33;;;;;;;;;;5070251;28;20044;-66
2023/05/13 07:03:48;;;;;;;17.05;15.55;;;;;;;;;;5073738;28;20063;-63
2023/05/13 07:06:17;;;;;;;18.10;16.50;;;;;;;;;;5064970;28;20056;-63
2023/05/13 07:08:44;;;;;;;16.50;15.00;;;;;;;;;;5073645;28;20059;-62
2023/05/13 07:11:10;;;;;;;16.15;14.52;;;;;;;;;;5073249;28;20065;-63
2023/05/13 07:13:37;;;;;;;14.70;13.40;;;;;;;;;;5073365;28;20060;-63
2023/05/13 07:16:04;;;;;;;14.55;13.15;;;;;;;;;;5068428;28;20052;-63
2023/05/13 07:18:31;;;;;;;17.00;15.50;;;;;;;;;;5051968;28;20060;-63
2023/05/13 07:20:58;;;;;;;14.95;13.50;;;;;;;;;;5069139;28;20097;-63
2023/05/13 07:23:26;;;;;;;13.45;12.15;;;;;;;;;;5073120;28;20052;-62
2023/05/13 07:25:53;;;;;;;14.07;12.63;;;;;;;;;;5064517;28;20087;-62
2023/05/13 07:28:20;;;;;;;13.93;12.65;;;;;;;;;;5069972;28;20413;-67
2023/05/13 07:30:47;;;;;;;14.98;13.68;;;;;;;;;;5063618;28;20401;-65
2023/05/13 07:33:14;;;;;;;15.02;13.77;;;;;;;;;;5064496;28;20053;-66
2023/05/13 07:35:40;;;;;;;12.70;11.60;;;;;;;;;;5060471;28;20168;-54
2023/05/13 07:38:08;;;;;;;12.40;11.15;;;;;;;;;;5057025;28;20052;-59
2023/05/13 07:40:37;;;;;;;11.90;10.80;;;;;;;;;;5057363;28;20044;-47
2023/05/13 07:43:04;;;;;;;10.82;9.73;;;;;;;;;;5067146;28;20079;-50
2023/05/13 07:45:31;;;;;;;12.75;11.65;;;;;;;;;;5054818;28;20048;-50
2023/05/13 07:47:58;;;;;;;11.70;10.55;;;;;;;;;;5058267;28;20048;-48
2023/05/13 07:50:25;;;;;;;11.52;10.32;;;;;;;;;;5072192;28;20052;-52
2023/05/13 07:52:51;;;;;;;9.00;8.07;;;;;;;;;;5072586;28;20675;-54
2023/05/13 07:55:18;;;;;;;10.25;9.18;;;;;;;;;;5068602;28;20398;-53
2023/05/13 07:57:47;;;;;;;9.52;8.63;;;;;;;;;;5058567;28;20053;-53
2023/05/13 08:00:14;;;;;;;9.65;8.75;;;;;;;;;;5072553;28;20055;-53
2023/05/13 08:02:42;;;;;;;8.63;7.82;;;;;;;;;;5072272;28;20056;-46
2023/05/13 08:05:09;;;;;;;10.07;8.10;;;;;;;;;;5066597;28;20064;-45
2023/05/13 08:07:36;;;;;;;9.15;8.35;;;;;;;;;;5071959;28;20059;-47
2023/05/13 08:10:03;;;;;;;9.32;8.43;;;;;;;;;;5061865;28;20056;-47
2023/05/13 08:12:30;;;;;;;9.75;8.15;;;;;;;;;;5053366;28;20052;-48
2023/05/13 08:14:58;;;;;;;10.70;9.45;;;;;;;;;;5052607;28;20848;-48
2023/05/13 08:17:25;;;;;;;8.82;8.02;;;;;;;;;;5055373;28;20071;-47
2023/05/13 08:19:52;;;;;;;8.70;7.90;;;;;;;;;;5056119;28;20053;-45
2023/05/13 08:22:19;;;;;;;9.65;8.05;;;;;;;;;;5061269;28;20516;-45
2023/05/13 08:24:46;;;;;;;8.60;7.88;;;;;;;;;;5051094;28;20048;-47
2023/05/13 08:27:15;;;;;;;8.63;7.82;;;;;;;;;;5051347;28;21272;-46
2023/05/13 08:29:42;;;;;;;8.75;7.60;;;;;;;;;;5062154;28;20052;-46
2023/05/13 08:32:11;;;;;;;8.38;7.57;;;;;;;;;;5071895;28;20516;-47
2023/05/13 08:34:38;;;;;;;9.70;7.60;;;;;;;;;;5070633;28;20497;-47
2023/05/13 08:37:05;;;;;;;8.43;7.20;;;;;;;;;;5068573;28;20056;-46
2023/05/13 08:39:33;;;;;;;7.95;7.15;;;;;;;;;;5062409;28;20057;-47
2023/05/13 08:42:02;;;;;;;7.95;7.25;;;;;;;;;;5055348;28;20052;-45
2023/05/13 08:44:29;;;;;;;7.03;6.32;;;;;;;;;;5068350;28;20049;-46
2023/05/13 08:47:00;;;;;;;7.75;7.00;;;;;;;;;;5066940;28;20059;-50
2023/05/13 08:49:29;;;;;;;7.22;6.05;;;;;;;;;;5067701;28;20424;-51
2023/05/13 08:51:56;;;;;;;9.75;6.30;;;;;;;;;;5059449;28;20406;-48
2023/05/13 08:54:23;;;;;;;6.80;5.70;;;;;;;;;;5066196;28;20131;-47
2023/05/13 08:56:50;;;;;;;6.72;6.03;;;;;;;;;;5072620;28;20056;-51
2023/05/13 08:59:18;;;;;;;6.55;5.93;;;;;;;;;;5074512;28;20397;-46
2023/05/13 09:01:44;;;;;;;6.10;5.53;;;;;;;;;;5058882;28;20049;-44
2023/05/13 09:04:11;;;;;;;6.82;5.47;;;;;;;;;;5068161;28;20064;-51
2023/05/13 09:06:39;;;;;;;9.40;6.03;;;;;;;;;;5062982;28;20461;-50
2023/05/13 09:09:06;;;;;;;6.55;5.20;;;;;;;;;;5054571;28;20049;-52
2023/05/13 09:11:33;;;;;;;5.75;5.20;;;;;;;;;;5066734;28;20421;-55
2023/05/13 09:14:02;;;;;;;6.85;5.10;;;;;;;;;;5059093;28;20056;-54
2023/05/13 09:16:29;;;;;;;6.53;4.65;;;;;;;;;;5060233;28;20401;-54
2023/05/13 09:18:57;;;;;;;5.80;5.13;;;;;;;;;;5058242;28;20072;-52
2023/05/13 09:21:24;;;;;;;5.10;4.60;;;;;;;;;;5062657;28;20080;-54
2023/05/13 09:24:01;;;;;;;6.18;4.50;;;;;;;;;;5060842;28;20076;-54
2023/05/13 09:26:29;;;;;;;6.38;5.18;;;;;;;;;;5052956;28;20048;-50
2023/05/13 09:29:10;;;;;;;5.30;4.60;;;;;;;;;;5055708;28;20451;-54
2023/05/13 09:31:37;;;;;;;6.40;4.53;;;;;;;;;;5070863;28;20481;-47
2023/05/13 09:34:04;;;;;;;5.35;4.10;;;;;;;;;;5058847;28;20052;-46
2023/05/13 09:36:31;;;;;;;6.45;4.50;;;;;;;;;;5061744;28;20056;-47
2023/05/13 09:39:00;;;;;;;5.65;4.65;;;;;;;;;;5062487;28;20052;-45
2023/05/13 09:41:27;;;;;;;5.65;4.25;;;;;;;;;;5063489;28;20055;-54
2023/05/13 09:43:54;;;;;;;6.05;3.75;;;;;;;;;;5065405;28;20044;-62
2023/05/13 09:46:21;;;;;;;4.90;4.28;;;;;;;;;;5060626;28;20049;-65
2023/05/13 09:48:52;;;;;;;5.47;3.85;;;;;;;;;;5061903;28;20045;-63
2023/05/13 09:51:24;;;;;;;5.50;3.80;;;;;;;;;;5056530;28;20055;-65
2023/05/13 09:53:51;;;;;;;4.32;3.58;;;;;;;;;;5063495;28;20084;-64
2023/05/13 09:56:22;;;;;;;5.65;4.20;;;;;;;;;;5059599;28;20049;-65
2023/05/13 09:58:52;;;;;;;4.53;3.45;;;;;;;;;;5069082;28;20040;-60
2023/05/13 10:01:19;;;;;;;4.15;3.72;;;;;;;;;;5067275;28;20052;-65
2023/05/13 10:03:46;;;;;;;4.10;3.70;;;;;;;;;;5060026;28;20493;-64
2023/05/13 10:06:14;;;;;;;4.68;3.30;;;;;;;;;;5058407;28;20502;-65
2023/05/13 10:08:41;;;;;;;6.43;3.88;;;;;;;;;;5057872;28;20053;-65
2023/05/13 10:11:08;;;;;;;5.20;3.65;;;;;;;;;;5061527;28;20178;-63
2023/05/13 10:13:37;;;;;;;3.72;3.17;;;;;;;;;;5058427;28;20048;-64
2023/05/13 10:16:04;;;;;;;5.22;3.30;;;;;;;;;;5061861;28;20060;-63
2023/05/13 10:18:31;;;;;;;5.18;3.53;;;;;;;;;;5060883;28;20071;-63
2023/05/13 10:20:58;;;;;;;3.80;3.08;;;;;;;;;;5053455;28;20062;-64
2023/05/13 10:23:26;;;;;;;7.47;4.07;;;;;;;;;;5054857;28;20064;-64
2023/05/13 10:25:53;;;;;;;4.50;3.47;;;;;;;;;;5054338;28;20064;-64
2023/05/13 10:28:21;;;;;;;4.75;3.20;;;;;;;;;;5055008;28;20057;-64
2023/05/13 10:30:49;;;;;;;4.03;3.50;;;;;;;;;;5054384;28;20052;-63
2023/05/13 10:33:17;;;;;;;4.53;3.28;;;;;;;;;;5053784;28;20053;-63
2023/05/13 10:35:50;;;;;;;4.05;3.03;;;;;;;;;;5072148;28;20512;-62
2023/05/13 10:38:21;;;;;;;4.57;3.20;;;;;;;;;;5062172;28;20053;-63
2023/05/13 10:41:04;;;;;;;5.25;3.35;;;;;;;;;;5054005;28;20053;-62
2023/05/13 10:43:32;;;;;;;3.22;2.90;;;;;;;;;;5054187;28;20402;-64
2023/05/13 10:45:58;;;;;;;;;;;;;;;;;;5054877;28;20414;-64
2023/05/13 10:48:26;;;;;;;3.50;3.00;;;;;;;;;;5054247;28;19921;-64
2023/05/13 10:50:54;;;;;;;3.85;2.90;;;;;;;;;;5055485;28;20053;-64
2023/05/13 10:53:23;;;;;;;4.82;3.15;;;;;;;;;;5055370;28;20059;-64
2023/05/13 10:55:53;;;;;;;4.03;2.90;;;;;;;;;;5063365;28;20064;-63
2023/05/13 10:58:21;;;;;;;4.68;3.30;;;;;;;;;;5065633;28;20059;-64
2023/05/13 11:00:48;;;;;;;6.05;3.03;;;;;;;;;;5053991;28;20052;-64
2023/05/13 11:03:26;;;;;;;5.47;2.80;;;;;;;;;;5066953;28;20049;-63
2023/05/13 11:06:03;;;;;;;4.90;2.80;;;;;;;;;;5066540;28;20402;-63
2023/05/13 11:08:29;;;;;;;;;;;;;;;;;;5054605;28;20045;-64
2023/05/13 11:10:56;;;;;;;8.05;3.13;;;;;;;;;;5053651;28;19928;-64
2023/05/13 11:13:23;;;;;;;3.83;2.90;;;;;;;;;;5054130;28;20045;-63
2023/05/13 11:15:51;;;;;;;3.58;3.15;;;;;;;;;;5053727;28;20071;-59
2023/05/13 11:18:19;;;;;;;4.40;2.85;;;;;;;;;;5053099;28;20057;-59
2023/05/13 11:20:46;;;;;;;4.10;2.50;;;;;;;;;;5051180;28;20045;-59
2023/05/13 11:23:18;;;;;;;4.05;3.00;;;;;;;;;;5053150;28;20490;-59
2023/05/13 11:25:45;;;;;;;5.93;2.80;;;;;;;;;;5065299;28;20056;-59
2023/05/13 11:28:14;;;;;;;6.13;3.78;;;;;;;;;;5072991;28;20067;-59
2023/05/13 11:30:52;;;;;;;4.18;3.10;;;;;;;;;;5073068;28;20056;-59
2023/05/13 11:33:19;;;;;;;3.83;2.90;;;;;;;;;;5073257;28;20044;-59
2023/05/13 11:35:53;;;;;;;3.53;2.78;;;;;;;;;;5061213;28;20175;-60
2023/05/13 11:38:23;;;;;;;5.55;2.90;;;;;;;;;;5052617;28;20060;-63
2023/05/13 11:40:51;;;;;;;3.75;2.90;;;;;;;;;;5052895;28;20056;-63
2023/05/13 11:43:19;;;;;;;4.47;2.70;;;;;;;;;;5053282;28;20049;-63
2023/05/13 11:45:46;;;;;;;5.07;2.75;;;;;;;;;;5053117;28;20053;-60
2023/05/13 11:48:19;;;;;;;4.90;2.70;;;;;;;;;;5053125;28;20052;-59
2023/05/13 11:50:46;;;;;;;4.03;2.60;;;;;;;;;;5058829;28;20045;-59
2023/05/13 11:53:19;;;;;;;4.72;2.90;;;;;;;;;;5066118;28;20098;-59
2023/05/13 11:55:47;;;;;;;6.53;3.00;;;;;;;;;;5062619;28;20053;-59
2023/05/13 11:58:15;;;;;;;3.10;2.80;;;;;;;;;;5058306;28;20048;-58
2023/05/13 12:00:41;;;;;;;;;;;;;;;;;;5064605;28;20559;-63
2023/05/13 12:03:10;;;;;;;3.40;2.78;;;;;;;;;;5070048;28;19920;-63
2023/05/13 12:05:37;;;;;;;5.10;3.00;;;;;;;;;;5068390;28;20257;-63
2023/05/13 12:08:04;;;;;;;5.45;2.72;;;;;;;;;;5067526;28;20053;-63
2023/05/13 12:10:31;;;;;;;2.65;2.13;;;;;;;;;;5052589;28;20478;-62
2023/05/13 12:12:59;;;;;;;3.75;2.65;;;;;;;;;;5052642;28;20049;-60
2023/05/13 12:15:27;;;;;;;6.43;2.70;;;;;;;;;;5052903;28;20048;-60
2023/05/13 12:17:54;;;;;;;4.28;2.85;;;;;;;;;;5052633;28;20513;-60
2023/05/13 12:20:21;;;;;;;3.97;2.90;;;;;;;;;;5057903;28;20508;-60
2023/05/13 12:22:52;;;;;;;3.42;2.72;;;;;;;;;;5054115;28;20064;-60
2023/05/13 12:25:39;;;;;;;3.88;2.75;;;;;;;;;;5057413;28;20048;-60
2023/05/13 12:28:08;;;;;;;4.50;2.42;;;;;;;;;;5052582;28;20057;-59
2023/05/13 12:30:36;;;;;;;2.75;2.40;;;;;;;;;;5054001;28;20052;-59
2023/05/13 12:33:04;;;;;;;4.03;2.55;;;;;;;;;;5053642;28;20041;-60
2023/05/13 12:35:31;;;;;;;3.53;2.38;;;;;;;;;;5055765;28;20398;-60
2023/05/13 12:38:01;;;;;;;3.38;2.67;;;;;;;;;;5055751;28;20048;-59
2023/05/13 12:40:28;;;;;;;5.25;2.30;;;;;;;;;;5067937;28;20075;-60
2023/05/13 12:42:58;;;;;;;3.08;2.35;;;;;;;;;;5056064;28;20056;-59
2023/05/13 12:45:30;;;;;;;3.55;2.40;;;;;;;;;;5063946;28;20053;-59
2023/05/13 12:47:57;;;;;;;3.80;2.83;;;;;;;;;;5052678;28;20048;-58
2023/05/13 12:50:24;;;;;;;5.45;2.55;;;;;;;;;;5056831;28;20049;-59
2023/05/13 12:52:51;;;;;;;3.58;2.70;;;;;;;;;;5052060;28;20057;-59
2023/05/13 12:55:18;;;;;;;4.20;3.03;;;;;;;;;;5060000;28;20113;-59
2023/05/13 12:57:54;;;;;;;3.00;2.70;;;;;;;;;;5068595;28;20493;-59
2023/05/13 13:00:21;;;;;;;3.20;2.33;;;;;;;;;;5053205;28;20049;-57
2023/05/13 13:02:49;;;;;;;3.13;2.35;;;;;;;;;;5059428;28;20056;-58
2023/05/13 13:05:16;;;;;;;3.80;2.10;;;;;;;;;;5070346;28;20056;-59
2023/05/13 13:07:43;;;;;;;3.35;2.60;;;;;;;;;;5070193;28;20056;-58
2023/05/13 13:10:10;;;;;;;3.78;2.20;;;;;;;;;;5069757;28;20053;-59
2023/05/13 13:12:37;;;;;;;5.22;2.83;;;;;;;;;;5057509;28;20052;-58
2023/05/13 13:15:04;;;;;;;2.60;2.40;;;;;;;;;;5052849;28;20064;-58
2023/05/13 13:17:30;;;;;;;5.10;2.22;;;;;;;;;;5061338;28;20053;-59
2023/05/13 13:19:59;;;;;;;3.97;2.20;;;;;;;;;;5059489;28;20064;-59
2023/05/13 13:22:26;;;;;;;3.17;2.22;;;;;;;;;;5075786;28;20067;-59
2023/05/13 13:24:53;;;;;;;3.60;2.30;;;;;;;;;;5075973;28;20056;-59
2023/05/13 13:27:19;;;;;;;4.82;2.75;;;;;;;;;;5071255;28;20057;-59
2023/05/13 13:29:46;;;;;;;3.95;2.40;;;;;;;;;;5069485;28;20540;-59
2023/05/13 13:32:13;;;;;;;5.45;2.35;;;;;;;;;;5055401;28;20064;-60
2023/05/13 13:34:40;;;;;;;3.85;2.53;;;;;;;;;;5058052;28;20056;-59
2023/05/13 13:37:08;;;;;;;2.45;2.22;;;;;;;;;;5055817;28;20049;-59
2023/05/13 13:39:35;;;;;;;4.03;2.38;;;;;;;;;;5058033;28;20482;-59
2023/05/13 13:42:03;;;;;;;3.88;2.60;;;;;;;;;;5068024;28;20064;-59
2023/05/13 13:44:30;;;;;;;3.85;2.35;;;;;;;;;;5056082;28;20045;-59
2023/05/13 13:46:57;;;;;;;3.75;2.35;;;;;;;;;;5055256;28;20417;-59
2023/05/13 13:49:24;;;;;;;4.22;2.35;;;;;;;;;;5055119;28;20060;-59
2023/05/13 13:51:51;;;;;;;4.43;2.78;;;;;;;;;;5057388;28;20053;-59
2023/05/13 13:54:19;;;;;;;4.72;2.40;;;;;;;;;;5064699;28;20056;-58
2023/05/13 13:56:46;;;;;;;6.65;3.17;;;;;;;;;;5069096;28;20063;-58
2023/05/13 13:59:13;;;;;;;6.63;2.88;;;;;;;;;;5074894;28;20059;-59
2023/05/13 14:01:40;;;;;;;4.45;2.28;;;;;;;;;;5075178;28;20056;-59
2023/05/13 14:04:10;;;;;;;3.95;2.70;;;;;;;;;;5055161;28;20053;-59
2023/05/13 14:06:37;;;;;;;5.43;2.85;;;;;;;;;;5056430;28;20490;-59
2023/05/13 14:09:04;;;;;;;6.80;2.70;;;;;;;;;;5054496;28;20068;-59
2023/05/13 14:11:32;;;;;;;3.90;2.63;;;;;;;;;;5061169;28;20060;-59
2023/05/13 14:13:59;;;;;;;4.15;2.70;;;;;;;;;;5073189;28;20049;-59
2023/05/13 14:16:26;;;;;;;2.95;2.45;;;;;;;;;;5074674;28;20060;-59
2023/05/13 14:18:53;;;;;;;3.38;2.60;;;;;;;;;;5074462;28;20053;-59
2023/05/13 14:21:20;;;;;;;4.75;2.78;;;;;;;;;;5074680;28;20052;-59
2023/05/13 14:23:47;;;;;;;2.92;2.60;;;;;;;;;;5073048;28;20052;-59
2023/05/13 14:26:14;;;;;;;3.58;2.40;;;;;;;;;;5070410;28;20512;-59
2023/05/13 14:28:42;;;;;;;2.83;2.30;;;;;;;;;;5063920;28;20055;-59
2023/05/13 14:31:09;;;;;;;4.32;2.83;;;;;;;;;;5054137;28;20053;-59